sensor_id;sensor_type;location;lat;lon;timestamp;pressure;altitude;pressure_sealevel;temperature;humidity
68075;BME280;54864;52.002;5.468;2023-02-28T00:00:05;103040.88;;;1.64;73.50
68075;BME280;54864;52.002;5.468;2023-02-28T00:01:11;103044.31;;;1.63;73.35
68075;BME280;54864;52.002;5.468;2023-02-28T00:02:13;103036.16;;;1.49;74.09
68075;BME280;54864;52.002;5.468;2023-02-28T00:03:15;103040.69;;;1.56;73.78
68075;BME280;54864;52.002;5.468;2023-02-28T00:04:15;103041.47;;;1.54;74.25
68075;BME280;54864;52.002;5.468;2023-02-28T00:05:20;103034.38;;;1.48;74.30
68075;BME280;54864;52.002;5.468;2023-02-28T00:06:21;103037.69;;;1.43;74.38
68075;BME280;54864;52.002;5.468;2023-02-28T00:07:24;103038.63;;;1.45;74.42
68075;BME280;54864;52.002;5.468;2023-02-28T00:08:26;103041.06;;;1.39;74.70
68075;BME280;54864;52.002;5.468;2023-02-28T00:09:29;103043.06;;;1.49;74.49
68075;BME280;54864;52.002;5.468;2023-02-28T00:10:31;103039.97;;;1.62;74.10
68075;BME280;54864;52.002;5.468;2023-02-28T00:11:32;103041.47;;;1.54;74.30
68075;BME280;54864;52.002;5.468;2023-02-28T00:12:34;103032.72;;;1.50;74.61
68075;BME280;54864;52.002;5.468;2023-02-28T00:13:40;103037.19;;;1.56;74.24
68075;BME280;54864;52.002;5.468;2023-02-28T00:14:42;103034.56;;;1.54;74.40
68075;BME280;54864;52.002;5.468;2023-02-28T00:15:43;103035.41;;;1.53;74.90
68075;BME280;54864;52.002;5.468;2023-02-28T00:16:45;103040.09;;;1.67;74.19
68075;BME280;54864;52.002;5.468;2023-02-28T00:17:46;103036.53;;;1.63;74.42
68075;BME280;54864;52.002;5.468;2023-02-28T00:18:48;103040.97;;;1.67;74.37
68075;BME280;54864;52.002;5.468;2023-02-28T00:19:51;103035.94;;;1.73;74.25
68075;BME280;54864;52.002;5.468;2023-02-28T00:20:52;103039.22;;;1.66;74.74
68075;BME280;54864;52.002;5.468;2023-02-28T00:21:53;103039.03;;;1.60;74.92
68075;BME280;54864;52.002;5.468;2023-02-28T00:22:54;103041.88;;;1.69;75.27
68075;BME280;54864;52.002;5.468;2023-02-28T00:23:58;103031.31;;;1.63;75.76
68075;BME280;54864;52.002;5.468;2023-02-28T00:24:58;103037.84;;;1.80;75.63
68075;BME280;54864;52.002;5.468;2023-02-28T00:26:00;103040.53;;;1.83;75.39
68075;BME280;54864;52.002;5.468;2023-02-28T00:27:01;103044.25;;;1.93;75.21
68075;BME280;54864;52.002;5.468;2023-02-28T00:28:03;103044.41;;;1.98;74.86
68075;BME280;54864;52.002;5.468;2023-02-28T00:29:06;103046.31;;;2.05;75.09
68075;BME280;54864;52.002;5.468;2023-02-28T00:30:10;103039.50;;;2.10;74.68
68075;BME280;54864;52.002;5.468;2023-02-28T00:31:11;103038.06;;;2.21;74.37
68075;BME280;54864;52.002;5.468;2023-02-28T00:32:13;103037.25;;;2.23;74.33
68075;BME280;54864;52.002;5.468;2023-02-28T00:33:14;103038.19;;;2.27;74.18
68075;BME280;54864;52.002;5.468;2023-02-28T00:34:16;103038.41;;;2.36;73.94
68075;BME280;54864;52.002;5.468;2023-02-28T00:35:17;103033.94;;;2.31;73.76
68075;BME280;54864;52.002;5.468;2023-02-28T00:36:19;103035.06;;;2.40;73.85
68075;BME280;54864;52.002;5.468;2023-02-28T00:37:20;103031.69;;;2.44;73.59
68075;BME280;54864;52.002;5.468;2023-02-28T00:38:22;103030.91;;;2.48;73.22
68075;BME280;54864;52.002;5.468;2023-02-28T00:39:24;103030.13;;;2.52;73.19
68075;BME280;54864;52.002;5.468;2023-02-28T00:40:26;103039.75;;;2.55;73.20
68075;BME280;54864;52.002;5.468;2023-02-28T00:41:26;103029.41;;;2.58;73.27
68075;BME280;54864;52.002;5.468;2023-02-28T00:42:28;103031.03;;;2.54;72.87
68075;BME280;54864;52.002;5.468;2023-02-28T00:43:30;103036.50;;;2.64;72.72
68075;BME280;54864;52.002;5.468;2023-02-28T00:44:31;103036.47;;;2.62;72.64
68075;BME280;54864;52.002;5.468;2023-02-28T00:45:32;103030.28;;;2.59;72.94
68075;BME280;54864;52.002;5.468;2023-02-28T00:46:34;103033.09;;;2.66;72.67
68075;BME280;54864;52.002;5.468;2023-02-28T00:47:35;103035.75;;;2.69;72.90
68075;BME280;54864;52.002;5.468;2023-02-28T00:48:37;103018.38;;;2.68;72.64
68075;BME280;54864;52.002;5.468;2023-02-28T00:49:37;103034.13;;;2.74;72.38
68075;BME280;54864;52.002;5.468;2023-02-28T00:50:39;103030.75;;;2.78;72.07
68075;BME280;54864;52.002;5.468;2023-02-28T00:51:40;103024.88;;;2.87;71.53
68075;BME280;54864;52.002;5.468;2023-02-28T00:52:42;103030.84;;;2.83;71.86
68075;BME280;54864;52.002;5.468;2023-02-28T00:53:42;103030.28;;;2.96;71.59
68075;BME280;54864;52.002;5.468;2023-02-28T00:54:46;103029.28;;;2.91;71.30
68075;BME280;54864;52.002;5.468;2023-02-28T00:55:47;103036.09;;;2.84;71.79
68075;BME280;54864;52.002;5.468;2023-02-28T00:56:48;103034.53;;;2.93;71.56
68075;BME280;54864;52.002;5.468;2023-02-28T00:57:49;103034.56;;;2.94;71.93
68075;BME280;54864;52.002;5.468;2023-02-28T00:58:51;103030.25;;;2.95;71.53
68075;BME280;54864;52.002;5.468;2023-02-28T00:59:52;103033.69;;;2.94;71.37
68075;BME280;54864;52.002;5.468;2023-02-28T01:00:54;103032.91;;;2.98;71.49
68075;BME280;54864;52.002;5.468;2023-02-28T01:01:55;103031.31;;;3.04;70.96
68075;BME280;54864;52.002;5.468;2023-02-28T01:02:57;103038.16;;;2.99;71.25
68075;BME280;54864;52.002;5.468;2023-02-28T01:03:58;103032.22;;;3.06;70.91
68075;BME280;54864;52.002;5.468;2023-02-28T01:05:00;103037.41;;;3.05;71.16
68075;BME280;54864;52.002;5.468;2023-02-28T01:06:01;103047.00;;;3.07;71.21
68075;BME280;54864;52.002;5.468;2023-02-28T01:07:03;103038.34;;;3.08;71.35
68075;BME280;54864;52.002;5.468;2023-02-28T01:08:04;103038.34;;;3.08;71.22
68075;BME280;54864;52.002;5.468;2023-02-28T01:09:07;103033.94;;;3.06;70.91
68075;BME280;54864;52.002;5.468;2023-02-28T01:10:10;103038.25;;;3.04;71.32
68075;BME280;54864;52.002;5.468;2023-02-28T01:11:14;103041.56;;;2.97;71.19
68075;BME280;54864;52.002;5.468;2023-02-28T01:12:16;103040.63;;;2.93;71.98
68075;BME280;54864;52.002;5.468;2023-02-28T01:13:18;103046.91;;;3.03;71.99
68075;BME280;54864;52.002;5.468;2023-02-28T01:14:19;103048.63;;;3.02;71.41
68075;BME280;54864;52.002;5.468;2023-02-28T01:15:21;103041.78;;;3.06;71.96
68075;BME280;54864;52.002;5.468;2023-02-28T01:16:21;103039.22;;;3.09;71.54
68075;BME280;54864;52.002;5.468;2023-02-28T01:17:23;103042.56;;;3.02;71.66
68075;BME280;54864;52.002;5.468;2023-02-28T01:18:24;103042.63;;;3.05;72.05
68075;BME280;54864;52.002;5.468;2023-02-28T01:19:26;103034.81;;;3.05;72.04
68075;BME280;54864;52.002;5.468;2023-02-28T01:20:26;103038.25;;;3.04;71.85
68075;BME280;54864;52.002;5.468;2023-02-28T01:21:31;103036.84;;;2.79;72.29
68075;BME280;54864;52.002;5.468;2023-02-28T01:22:34;103034.09;;;2.73;72.98
68075;BME280;54864;52.002;5.468;2023-02-28T01:23:36;103032.72;;;2.89;73.11
68075;BME280;54864;52.002;5.468;2023-02-28T01:24:37;103040.63;;;2.93;72.97
68075;BME280;54864;52.002;5.468;2023-02-28T01:25:40;103039.84;;;2.97;72.66
68075;BME280;54864;52.002;5.468;2023-02-28T01:26:41;103039.13;;;3.04;72.81
68075;BME280;54864;52.002;5.468;2023-02-28T01:27:43;103037.59;;;3.14;72.20
68075;BME280;54864;52.002;5.468;2023-02-28T01:28:44;103035.13;;;3.20;71.77
68075;BME280;54864;52.002;5.468;2023-02-28T01:29:46;103030.81;;;3.22;71.66
68075;BME280;54864;52.002;5.468;2023-02-28T01:30:48;103032.69;;;3.28;71.61
68075;BME280;54864;52.002;5.468;2023-02-28T01:31:53;103031.66;;;3.21;72.28
68075;BME280;54864;52.002;5.468;2023-02-28T01:32:53;103025.78;;;3.30;71.68
68075;BME280;54864;52.002;5.468;2023-02-28T01:33:55;103024.84;;;3.26;71.54
68075;BME280;54864;52.002;5.468;2023-02-28T01:34:56;103023.78;;;3.18;72.09
68075;BME280;54864;52.002;5.468;2023-02-28T01:35:58;103019.56;;;3.25;72.21
68075;BME280;54864;52.002;5.468;2023-02-28T01:36:59;103015.19;;;3.22;72.29
68075;BME280;54864;52.002;5.468;2023-02-28T01:38:01;103019.78;;;3.34;71.84
68075;BME280;54864;52.002;5.468;2023-02-28T01:39:02;103014.59;;;3.35;71.54
68075;BME280;54864;52.002;5.468;2023-02-28T01:40:06;103018.13;;;3.37;71.69
68075;BME280;54864;52.002;5.468;2023-02-28T01:41:12;103014.72;;;3.41;70.84
68075;BME280;54864;52.002;5.468;2023-02-28T01:42:16;103020.81;;;3.42;70.89
68075;BME280;54864;52.002;5.468;2023-02-28T01:43:20;103018.16;;;3.39;71.25
68075;BME280;54864;52.002;5.468;2023-02-28T01:46:07;103011.22;;;3.41;70.98
68075;BME280;54864;52.002;5.468;2023-02-28T01:47:08;103016.56;;;3.47;70.82
68075;BME280;54864;52.002;5.468;2023-02-28T01:48:10;103021.78;;;3.47;70.79
68075;BME280;54864;52.002;5.468;2023-02-28T01:49:13;103020.09;;;3.50;71.31
68075;BME280;54864;52.002;5.468;2023-02-28T01:50:18;103015.75;;;3.49;70.99
68075;BME280;54864;52.002;5.468;2023-02-28T01:51:24;103011.19;;;3.38;70.91
68075;BME280;54864;52.002;5.468;2023-02-28T01:52:29;103027.06;;;3.50;71.21
68075;BME280;54864;52.002;5.468;2023-02-28T01:53:33;103018.28;;;3.46;70.84
68075;BME280;54864;52.002;5.468;2023-02-28T01:54:36;103013.28;;;3.57;70.90
68075;BME280;54864;52.002;5.468;2023-02-28T01:55:37;103019.84;;;3.37;71.11
68075;BME280;54864;52.002;5.468;2023-02-28T01:56:44;103011.13;;;2.94;72.40
68075;BME280;54864;52.002;5.468;2023-02-28T01:57:50;103022.94;;;3.19;72.77
68075;BME280;54864;52.002;5.468;2023-02-28T01:58:53;103022.38;;;3.32;71.82
68075;BME280;54864;52.002;5.468;2023-02-28T01:59:57;103017.34;;;3.43;71.82
68075;BME280;54864;52.002;5.468;2023-02-28T02:01:04;103015.56;;;3.40;71.71
68075;BME280;54864;52.002;5.468;2023-02-28T02:02:06;103016.56;;;3.47;71.80
68075;BME280;54864;52.002;5.468;2023-02-28T02:03:09;103011.56;;;3.58;70.87
68075;BME280;54864;52.002;5.468;2023-02-28T02:04:12;103012.47;;;3.61;70.98
68075;BME280;54864;52.002;5.468;2023-02-28T02:05:15;103007.28;;;3.61;71.12
68075;BME280;54864;52.002;5.468;2023-02-28T02:06:17;103009.91;;;3.63;70.34
68075;BME280;54864;52.002;5.468;2023-02-28T02:07:18;103016.06;;;3.66;70.29
68075;BME280;54864;52.002;5.468;2023-02-28T02:08:23;103007.47;;;3.72;70.10
68075;BME280;54864;52.002;5.468;2023-02-28T02:09:25;103010.91;;;3.69;70.60
68075;BME280;54864;52.002;5.468;2023-02-28T02:10:30;102992.31;;;3.51;70.57
68075;BME280;54864;52.002;5.468;2023-02-28T02:11:33;103002.16;;;3.67;70.84
68075;BME280;54864;52.002;5.468;2023-02-28T02:14:16;103010.16;;;3.76;70.71
68075;BME280;54864;52.002;5.468;2023-02-28T02:15:26;103007.63;;;3.81;70.15
68075;BME280;54864;52.002;5.468;2023-02-28T02:16:40;103003.25;;;3.80;70.56
68075;BME280;54864;52.002;5.468;2023-02-28T02:17:48;103000.69;;;3.81;69.89
68075;BME280;54864;52.002;5.468;2023-02-28T02:18:53;102998.19;;;3.88;69.65
68075;BME280;54864;52.002;5.468;2023-02-28T02:20:27;102999.91;;;3.87;69.94
68075;BME280;54864;52.002;5.468;2023-02-28T02:22:08;102995.66;;;3.91;69.38
68075;BME280;54864;52.002;5.468;2023-02-28T02:23:37;102999.09;;;3.90;69.82
68075;BME280;54864;52.002;5.468;2023-02-28T02:25:19;103007.00;;;3.93;69.93
68075;BME280;54864;52.002;5.468;2023-02-28T02:28:44;102999.94;;;3.89;69.85
68075;BME280;54864;52.002;5.468;2023-02-28T02:30:26;103002.53;;;3.89;69.79
68075;BME280;54864;52.002;5.468;2023-02-28T02:31:53;103001.59;;;3.83;69.38
68075;BME280;54864;52.002;5.468;2023-02-28T02:33:06;103001.66;;;3.88;69.66
68075;BME280;54864;52.002;5.468;2023-02-28T02:34:32;103000.03;;;3.92;69.71
68075;BME280;54864;52.002;5.468;2023-02-28T02:35:41;103000.00;;;3.90;69.31
68075;BME280;54864;52.002;5.468;2023-02-28T02:36:45;102998.00;;;3.78;69.93
68075;BME280;54864;52.002;5.468;2023-02-28T02:37:52;102999.03;;;3.87;69.78
68075;BME280;54864;52.002;5.468;2023-02-28T02:39:02;103002.66;;;3.93;69.80
68075;BME280;54864;52.002;5.468;2023-02-28T02:40:12;103000.88;;;3.91;69.22
68075;BME280;54864;52.002;5.468;2023-02-28T02:41:18;103007.75;;;3.89;69.85
68075;BME280;54864;52.002;5.468;2023-02-28T02:42:27;103001.56;;;3.82;69.05
68075;BME280;54864;52.002;5.468;2023-02-28T02:43:33;102995.81;;;3.53;70.23
68075;BME280;54864;52.002;5.468;2023-02-28T02:44:40;102998.44;;;3.53;70.36
68075;BME280;54864;52.002;5.468;2023-02-28T02:45:46;103002.50;;;3.39;70.93
68075;BME280;54864;52.002;5.468;2023-02-28T02:46:53;103006.25;;;3.53;70.17
68075;BME280;54864;52.002;5.468;2023-02-28T02:47:56;103004.50;;;3.52;70.38
68075;BME280;54864;52.002;5.468;2023-02-28T02:49:03;103009.88;;;3.61;70.48
68075;BME280;54864;52.002;5.468;2023-02-28T02:50:11;103010.75;;;3.62;69.91
68075;BME280;54864;52.002;5.468;2023-02-28T02:51:17;103004.16;;;3.35;70.40
68075;BME280;54864;52.002;5.468;2023-02-28T02:52:28;103003.47;;;3.44;70.13
68075;BME280;54864;52.002;5.468;2023-02-28T02:53:35;103006.19;;;3.50;70.74
68075;BME280;54864;52.002;5.468;2023-02-28T02:54:41;103002.00;;;3.58;70.29
68075;BME280;54864;52.002;5.468;2023-02-28T02:55:46;103006.47;;;3.65;70.12
68075;BME280;54864;52.002;5.468;2023-02-28T02:56:53;103012.38;;;3.55;70.36
68075;BME280;54864;52.002;5.468;2023-02-28T02:57:57;103009.81;;;3.58;70.26
68075;BME280;54864;52.002;5.468;2023-02-28T02:59:02;103011.28;;;3.44;70.31
68075;BME280;54864;52.002;5.468;2023-02-28T03:00:05;103014.94;;;3.54;70.07
68075;BME280;54864;52.002;5.468;2023-02-28T03:01:11;103014.22;;;3.61;70.10
68075;BME280;54864;52.002;5.468;2023-02-28T03:02:15;103009.09;;;3.67;69.68
68075;BME280;54864;52.002;5.468;2023-02-28T03:03:19;103009.66;;;3.49;70.25
68075;BME280;54864;52.002;5.468;2023-02-28T03:04:32;103007.38;;;3.67;70.33
68075;BME280;54864;52.002;5.468;2023-02-28T03:05:42;103005.72;;;3.72;69.88
68075;BME280;54864;52.002;5.468;2023-02-28T03:06:45;103014.47;;;3.74;69.39
68075;BME280;54864;52.002;5.468;2023-02-28T03:07:46;103012.75;;;3.76;69.98
68075;BME280;54864;52.002;5.468;2023-02-28T03:08:47;103011.19;;;3.86;69.33
68075;BME280;54864;52.002;5.468;2023-02-28T03:09:51;103011.25;;;3.89;69.78
68075;BME280;54864;52.002;5.468;2023-02-28T03:10:56;103012.97;;;3.89;69.25
68075;BME280;54864;52.002;5.468;2023-02-28T03:11:58;103016.47;;;3.89;69.10
68075;BME280;54864;52.002;5.468;2023-02-28T03:13:11;103013.84;;;3.89;69.22
68075;BME280;54864;52.002;5.468;2023-02-28T03:14:25;103023.59;;;3.98;69.19
68075;BME280;54864;52.002;5.468;2023-02-28T03:15:34;103019.06;;;3.89;69.27
68075;BME280;54864;52.002;5.468;2023-02-28T03:16:58;103026.28;;;4.01;68.93
68075;BME280;54864;52.002;5.468;2023-02-28T03:18:05;103023.59;;;3.98;69.23
68075;BME280;54864;52.002;5.468;2023-02-28T03:19:40;103027.16;;;4.01;69.12
68075;BME280;54864;52.002;5.468;2023-02-28T03:20:51;103018.53;;;4.07;69.02
68075;BME280;54864;52.002;5.468;2023-02-28T03:22:09;103017.66;;;4.06;68.96
68075;BME280;54864;52.002;5.468;2023-02-28T03:23:16;103021.88;;;3.98;69.42
68075;BME280;54864;52.002;5.468;2023-02-28T03:24:21;103027.00;;;3.92;69.37
68075;BME280;54864;52.002;5.468;2023-02-28T03:25:31;103019.22;;;3.95;69.11
68075;BME280;54864;52.002;5.468;2023-02-28T03:26:37;103024.59;;;4.04;69.16
68075;BME280;54864;52.002;5.468;2023-02-28T03:27:46;103020.22;;;4.03;69.58
68075;BME280;54864;52.002;5.468;2023-02-28T03:28:57;103026.28;;;4.01;69.10
68075;BME280;54864;52.002;5.468;2023-02-28T03:30:04;103029.81;;;4.04;69.02
68075;BME280;54864;52.002;5.468;2023-02-28T03:31:12;103028.13;;;4.08;69.03
68075;BME280;54864;52.002;5.468;2023-02-28T03:32:23;103021.91;;;4.00;69.63
68075;BME280;54864;52.002;5.468;2023-02-28T03:33:29;103027.19;;;4.04;69.06
68075;BME280;54864;52.002;5.468;2023-02-28T03:34:34;103019.22;;;3.95;69.37
68075;BME280;54864;52.002;5.468;2023-02-28T03:35:39;103027.91;;;3.96;69.54
68075;BME280;54864;52.002;5.468;2023-02-28T03:36:48;103018.91;;;3.80;69.74
68075;BME280;54864;52.002;5.468;2023-02-28T03:37:54;103017.06;;;3.74;69.94
68075;BME280;54864;52.002;5.468;2023-02-28T03:39:02;103017.34;;;3.90;69.96
68075;BME280;54864;52.002;5.468;2023-02-28T03:40:08;103018.19;;;3.89;69.64
68075;BME280;54864;52.002;5.468;2023-02-28T03:41:15;103021.81;;;3.95;69.47
68075;BME280;54864;52.002;5.468;2023-02-28T03:42:20;103015.75;;;3.96;69.23
68075;BME280;54864;52.002;5.468;2023-02-28T03:43:25;103022.81;;;4.02;69.23
68075;BME280;54864;52.002;5.468;2023-02-28T03:44:30;103030.75;;;4.08;69.11
68075;BME280;54864;52.002;5.468;2023-02-28T03:45:36;103021.94;;;4.03;68.77
68075;BME280;54864;52.002;5.468;2023-02-28T03:48:39;103025.44;;;4.03;69.55
68075;BME280;54864;52.002;5.468;2023-02-28T03:49:47;103021.09;;;4.04;69.01
68075;BME280;54864;52.002;5.468;2023-02-28T03:50:54;103030.59;;;4.00;68.47
68075;BME280;54864;52.002;5.468;2023-02-28T03:52:00;103026.88;;;3.88;69.01
68075;BME280;54864;52.002;5.468;2023-02-28T03:53:04;103032.28;;;3.97;69.67
68075;BME280;54864;52.002;5.468;2023-02-28T03:54:12;103038.38;;;3.97;69.14
68075;BME280;54864;52.002;5.468;2023-02-28T03:55:16;103034.91;;;3.97;68.82
68075;BME280;54864;52.002;5.468;2023-02-28T03:56:20;103029.50;;;3.89;69.19
68075;BME280;54864;52.002;5.468;2023-02-28T03:57:27;103035.75;;;3.96;68.99
68075;BME280;54864;52.002;5.468;2023-02-28T03:58:38;103035.59;;;3.88;69.25
68075;BME280;54864;52.002;5.468;2023-02-28T03:59:43;103034.69;;;3.88;68.68
68075;BME280;54864;52.002;5.468;2023-02-28T04:00:49;103028.56;;;3.84;69.13
68075;BME280;54864;52.002;5.468;2023-02-28T04:01:52;103030.13;;;3.74;67.75
68075;BME280;54864;52.002;5.468;2023-02-28T04:02:55;103032.63;;;3.68;68.71
68075;BME280;54864;52.002;5.468;2023-02-28T04:04:05;103035.19;;;3.67;68.24
68075;BME280;54864;52.002;5.468;2023-02-28T04:05:07;103030.13;;;3.74;67.67
68075;BME280;54864;52.002;5.468;2023-02-28T04:06:14;103038.72;;;3.69;68.67
68075;BME280;54864;52.002;5.468;2023-02-28T04:07:19;103028.44;;;3.78;68.15
68075;BME280;54864;52.002;5.468;2023-02-28T04:08:20;103030.22;;;3.80;68.11
68075;BME280;54864;52.002;5.468;2023-02-28T04:09:22;103026.00;;;3.87;68.19
68075;BME280;54864;52.002;5.468;2023-02-28T04:10:25;103031.25;;;3.89;67.93
68075;BME280;54864;52.002;5.468;2023-02-28T04:11:30;103028.69;;;3.90;67.88
68075;BME280;54864;52.002;5.468;2023-02-28T04:12:32;103033.91;;;3.90;67.45
68075;BME280;54864;52.002;5.468;2023-02-28T04:13:34;103037.25;;;3.85;66.83
68075;BME280;54864;52.002;5.468;2023-02-28T04:14:35;103032.91;;;3.85;67.09
68075;BME280;54864;52.002;5.468;2023-02-28T04:15:36;103032.22;;;3.92;67.18
68075;BME280;54864;52.002;5.468;2023-02-28T04:16:39;103033.84;;;3.89;67.12
68075;BME280;54864;52.002;5.468;2023-02-28T04:17:41;103033.06;;;3.91;67.13
68075;BME280;54864;52.002;5.468;2023-02-28T04:18:42;103032.09;;;3.88;66.88
68075;BME280;54864;52.002;5.468;2023-02-28T04:19:44;103033.13;;;3.94;67.28
68075;BME280;54864;52.002;5.468;2023-02-28T04:20:45;103034.06;;;3.99;66.68
68075;BME280;54864;52.002;5.468;2023-02-28T04:21:48;103034.91;;;3.97;66.08
68075;BME280;54864;52.002;5.468;2023-02-28T04:22:53;103032.28;;;3.97;66.74
68075;BME280;54864;52.002;5.468;2023-02-28T04:23:54;103028.75;;;3.93;67.22
68075;BME280;54864;52.002;5.468;2023-02-28T04:24:55;103031.44;;;3.98;66.97
68075;BME280;54864;52.002;5.468;2023-02-28T04:25:57;103029.72;;;4.00;67.43
68075;BME280;54864;52.002;5.468;2023-02-28T04:26:59;103036.72;;;4.02;67.33
68075;BME280;54864;52.002;5.468;2023-02-28T04:28:01;103032.38;;;4.03;67.14
68075;BME280;54864;52.002;5.468;2023-02-28T04:29:02;103041.09;;;4.03;67.36
68075;BME280;54864;52.002;5.468;2023-02-28T04:30:06;103045.53;;;4.07;67.13
68075;BME280;54864;52.002;5.468;2023-02-28T04:31:07;103045.53;;;4.09;66.98
68075;BME280;54864;52.002;5.468;2023-02-28T04:32:09;103043.81;;;4.09;66.94
68075;BME280;54864;52.002;5.468;2023-02-28T04:33:09;103040.25;;;4.04;66.80
68075;BME280;54864;52.002;5.468;2023-02-28T04:34:12;103042.88;;;4.06;66.18
68075;BME280;54864;52.002;5.468;2023-02-28T04:35:12;103049.66;;;3.95;66.14
68075;BME280;54864;52.002;5.468;2023-02-28T04:36:14;103045.31;;;3.95;66.55
68075;BME280;54864;52.002;5.468;2023-02-28T04:37:17;103037.19;;;3.81;66.11
68075;BME280;54864;52.002;5.468;2023-02-28T04:38:21;103037.06;;;3.74;67.26
68075;BME280;54864;52.002;5.468;2023-02-28T04:39:22;103029.28;;;3.75;66.91
68075;BME280;54864;52.002;5.468;2023-02-28T04:40:25;103042.41;;;3.80;66.76
68075;BME280;54864;52.002;5.468;2023-02-28T04:41:25;103038.75;;;3.70;67.54
68075;BME280;54864;52.002;5.468;2023-02-28T04:42:27;103043.19;;;3.76;66.65
68075;BME280;54864;52.002;5.468;2023-02-28T04:43:35;103048.50;;;3.80;66.13
68075;BME280;54864;52.002;5.468;2023-02-28T04:44:37;103046.50;;;3.67;66.73
68075;BME280;54864;52.002;5.468;2023-02-28T04:45:37;103046.16;;;3.49;67.05
68075;BME280;54864;52.002;5.468;2023-02-28T04:46:39;103042.91;;;3.61;67.97
68075;BME280;54864;52.002;5.468;2023-02-28T04:47:40;103041.19;;;3.61;67.08
68075;BME280;54864;52.002;5.468;2023-02-28T04:48:42;103046.47;;;3.66;67.54
68075;BME280;54864;52.002;5.468;2023-02-28T04:49:44;103037.88;;;3.71;67.37
68075;BME280;54864;52.002;5.468;2023-02-28T04:50:48;103046.56;;;3.70;66.88
68075;BME280;54864;52.002;5.468;2023-02-28T04:51:49;103040.31;;;3.62;66.85
68075;BME280;54864;52.002;5.468;2023-02-28T04:52:50;103042.09;;;3.63;68.06
68075;BME280;54864;52.002;5.468;2023-02-28T04:53:53;103035.84;;;3.55;66.56
68075;BME280;54864;52.002;5.468;2023-02-28T04:54:54;103033.06;;;3.46;67.40
68075;BME280;54864;52.002;5.468;2023-02-28T04:55:55;103040.25;;;3.58;66.74
68075;BME280;54864;52.002;5.468;2023-02-28T04:56:57;103039.56;;;3.68;66.86
68075;BME280;54864;52.002;5.468;2023-02-28T04:57:58;103043.13;;;3.73;67.20
68075;BME280;54864;52.002;5.468;2023-02-28T04:59:00;103044.97;;;3.78;66.46
68075;BME280;54864;52.002;5.468;2023-02-28T05:00:00;103044.97;;;3.78;67.11
68075;BME280;54864;52.002;5.468;2023-02-28T05:01:14;103035.44;;;3.80;66.16
68075;BME280;54864;52.002;5.468;2023-02-28T05:02:16;103049.38;;;3.81;66.66
68075;BME280;54864;52.002;5.468;2023-02-28T05:03:18;103049.44;;;3.86;67.41
68075;BME280;54864;52.002;5.468;2023-02-28T05:04:21;103048.53;;;3.83;66.69
68075;BME280;54864;52.002;5.468;2023-02-28T05:05:22;103044.88;;;3.72;67.34
68075;BME280;54864;52.002;5.468;2023-02-28T05:06:25;103046.63;;;3.73;67.77
68075;BME280;54864;52.002;5.468;2023-02-28T05:07:27;103049.22;;;3.73;67.36
68075;BME280;54864;52.002;5.468;2023-02-28T05:08:28;103045.78;;;3.74;66.92
68075;BME280;54864;52.002;5.468;2023-02-28T05:09:32;103045.75;;;3.73;66.72
68075;BME280;54864;52.002;5.468;2023-02-28T05:10:33;103047.34;;;3.66;66.41
68075;BME280;54864;52.002;5.468;2023-02-28T05:11:35;103041.00;;;3.52;66.88
68075;BME280;54864;52.002;5.468;2023-02-28T05:12:36;103040.84;;;3.44;67.38
68075;BME280;54864;52.002;5.468;2023-02-28T05:13:39;103041.88;;;3.53;67.60
68075;BME280;54864;52.002;5.468;2023-02-28T05:14:39;103032.50;;;3.62;67.98
68075;BME280;54864;52.002;5.468;2023-02-28T05:15:44;103046.47;;;3.66;67.88
68075;BME280;54864;52.002;5.468;2023-02-28T05:16:45;103038.75;;;3.70;67.19
68075;BME280;54864;52.002;5.468;2023-02-28T05:17:47;103036.16;;;3.72;67.23
68075;BME280;54864;52.002;5.468;2023-02-28T05:18:47;103039.72;;;3.77;67.56
68075;BME280;54864;52.002;5.468;2023-02-28T05:19:49;103033.72;;;3.81;67.82
68075;BME280;54864;52.002;5.468;2023-02-28T05:20:50;103028.47;;;3.79;67.84
68075;BME280;54864;52.002;5.468;2023-02-28T05:21:53;103040.66;;;3.80;68.11
68075;BME280;54864;52.002;5.468;2023-02-28T05:22:56;103036.28;;;3.79;68.25
68075;BME280;54864;52.002;5.468;2023-02-28T05:24:00;103039.78;;;3.80;68.83
68075;BME280;54864;52.002;5.468;2023-02-28T05:25:02;103035.44;;;3.80;68.13
68075;BME280;54864;52.002;5.468;2023-02-28T05:26:04;103033.66;;;3.78;68.98
68075;BME280;54864;52.002;5.468;2023-02-28T05:27:05;103037.13;;;3.77;68.42
68075;BME280;54864;52.002;5.468;2023-02-28T05:28:07;103038.00;;;3.77;68.11
68075;BME280;54864;52.002;5.468;2023-02-28T05:29:08;103035.41;;;3.79;68.61
68075;BME280;54864;52.002;5.468;2023-02-28T05:30:11;103034.47;;;3.75;68.92
68075;BME280;54864;52.002;5.468;2023-02-28T05:31:12;103034.53;;;3.78;68.36
68075;BME280;54864;52.002;5.468;2023-02-28T05:32:14;103025.03;;;3.82;68.54
68075;BME280;54864;52.002;5.468;2023-02-28T05:33:15;103031.13;;;3.82;68.48
68075;BME280;54864;52.002;5.468;2023-02-28T05:34:17;103023.19;;;3.76;67.74
68075;BME280;54864;52.002;5.468;2023-02-28T05:35:19;103027.66;;;3.82;67.84
68075;BME280;54864;52.002;5.468;2023-02-28T05:36:19;103021.56;;;3.81;68.13
68075;BME280;54864;52.002;5.468;2023-02-28T05:37:21;103030.22;;;3.80;68.46
68075;BME280;54864;52.002;5.468;2023-02-28T05:38:22;103024.91;;;3.74;68.10
68075;BME280;54864;52.002;5.468;2023-02-28T05:39:24;103028.44;;;3.78;68.77
68075;BME280;54864;52.002;5.468;2023-02-28T05:40:27;103022.13;;;3.65;68.83
68075;BME280;54864;52.002;5.468;2023-02-28T05:41:29;103024.81;;;3.70;68.70
68075;BME280;54864;52.002;5.468;2023-02-28T05:42:30;103030.97;;;3.73;68.54
68075;BME280;54864;52.002;5.468;2023-02-28T05:43:31;103023.16;;;3.73;69.33
68075;BME280;54864;52.002;5.468;2023-02-28T05:44:32;103019.75;;;3.79;68.53
68075;BME280;54864;52.002;5.468;2023-02-28T05:45:34;103022.38;;;3.79;68.57
68075;BME280;54864;52.002;5.468;2023-02-28T05:46:34;103015.44;;;3.81;68.42
68075;BME280;54864;52.002;5.468;2023-02-28T05:47:37;103016.34;;;3.83;68.49